Time;durP1;ratioP1;P1;durP2;ratioP2;P2;SDS_P1;SDS_P2;PMS_P1;PMS_P2;Temp;Humidity;BMP_temperature;BMP_pressure;BME280_temperature;BME280_humidity;BME280_pressure;Samples;Min_cycle;Max_cycle;Signal;HPM_P1;HPM_P2
2023/04/11 00:01:32;;;;;;;5.33;2.13;;;;;;;;;;5013297;28;20415;-45
2023/04/11 00:03:58;;;;;;;2.90;1.70;;;;;;;;;;5015919;28;20433;-45
2023/04/11 00:06:25;;;;;;;1.87;1.77;;;;;;;;;;5022141;28;20427;-45
2023/04/11 00:08:51;;;;;;;1.73;1.60;;;;;;;;;;5010985;28;20439;-45
2023/04/11 00:11:17;;;;;;;5.67;2.00;;;;;;;;;;5014585;28;20906;-45
2023/04/11 00:13:44;;;;;;;6.70;1.77;;;;;;;;;;5013923;28;20558;-45
2023/04/11 00:16:10;;;;;;;2.30;1.97;;;;;;;;;;5014493;28;20916;-45
2023/04/11 00:18:38;;;;;;;3.40;1.70;;;;;;;;;;5013897;28;20429;-45
2023/04/11 00:21:04;;;;;;;4.00;2.00;;;;;;;;;;5014575;28;20452;-45
2023/04/11 00:23:30;;;;;;;2.13;1.50;;;;;;;;;;5014317;28;20429;-45
2023/04/11 00:25:57;;;;;;;3.37;1.67;;;;;;;;;;5010094;28;20419;-45
2023/04/11 00:28:23;;;;;;;5.17;2.93;;;;;;;;;;5013890;28;20506;-45
2023/04/11 00:30:49;;;;;;;11.33;2.07;;;;;;;;;;5014037;28;20800;-45
2023/04/11 00:33:15;;;;;;;3.97;1.80;;;;;;;;;;5014366;28;20418;-45
2023/04/11 00:35:41;;;;;;;4.13;2.27;;;;;;;;;;5016331;28;20425;-45
2023/04/11 00:38:07;;;;;;;2.37;2.00;;;;;;;;;;5013804;28;20462;-45
2023/04/11 00:40:33;;;;;;;2.27;2.10;;;;;;;;;;5014472;28;20411;-45
2023/04/11 00:42:59;;;;;;;3.57;1.87;;;;;;;;;;5013980;28;20409;-45
2023/04/11 00:45:25;;;;;;;6.50;2.07;;;;;;;;;;5014205;28;20789;-45
2023/04/11 00:47:51;;;;;;;6.03;2.00;;;;;;;;;;5013435;28;20474;-44
2023/04/11 00:50:20;;;;;;;2.00;1.80;;;;;;;;;;5014087;28;20447;-44
2023/04/11 00:52:47;;;;;;;10.83;2.13;;;;;;;;;;5013899;28;20446;-45
2023/04/11 00:55:13;;;;;;;4.50;2.13;;;;;;;;;;5009748;28;20409;-45
2023/04/11 00:57:40;;;;;;;1.80;1.70;;;;;;;;;;5011290;28;20787;-45
2023/04/11 01:00:09;;;;;;;5.77;2.07;;;;;;;;;;5014003;28;20714;-45
2023/04/11 01:02:36;;;;;;;4.13;2.47;;;;;;;;;;5012145;28;20417;-46
2023/04/11 01:05:02;;;;;;;3.73;2.10;;;;;;;;;;5011135;28;20424;-45
2023/04/11 01:07:29;;;;;;;4.33;2.30;;;;;;;;;;5016803;28;20442;-45
2023/04/11 01:09:55;;;;;;;1.93;1.83;;;;;;;;;;5013501;28;20407;-45
2023/04/11 01:12:21;;;;;;;4.40;2.40;;;;;;;;;;5013654;28;20493;-45
2023/04/11 01:14:48;;;;;;;7.87;2.47;;;;;;;;;;5012321;28;20930;-45
2023/04/11 01:17:15;;;;;;;7.97;2.37;;;;;;;;;;5013115;28;20921;-45
2023/04/11 01:19:41;;;;;;;4.10;2.30;;;;;;;;;;5013436;28;20462;-45
2023/04/11 01:22:07;;;;;;;5.47;2.43;;;;;;;;;;5013672;28;20412;-45
2023/04/11 01:24:34;;;;;;;8.47;2.70;;;;;;;;;;5013355;28;20415;-45
2023/04/11 01:27:01;;;;;;;5.80;2.40;;;;;;;;;;5013001;28;20431;-44
2023/04/11 01:29:27;;;;;;;6.43;2.43;;;;;;;;;;5011964;28;20778;-45
2023/04/11 01:31:53;;;;;;;9.50;3.40;;;;;;;;;;5013079;28;20552;-45
2023/04/11 01:34:20;;;;;;;4.83;2.13;;;;;;;;;;5013218;28;20411;-45
2023/04/11 01:36:47;;;;;;;8.53;3.40;;;;;;;;;;5012987;28;20426;-45
2023/04/11 01:39:13;;;;;;;4.80;2.27;;;;;;;;;;5012503;28;20430;-45
2023/04/11 01:41:40;;;;;;;7.87;2.43;;;;;;;;;;5012828;28;20915;-44
2023/04/11 01:44:06;;;;;;;8.83;3.10;;;;;;;;;;5011419;28;20783;-45
2023/04/11 01:46:32;;;;;;;3.60;2.20;;;;;;;;;;5012874;28;20407;-45
2023/04/11 01:49:02;;;;;;;11.30;2.80;;;;;;;;;;5012600;28;20438;-45
2023/04/11 01:51:27;;;;;;;4.00;3.10;;;;;;;;;;5012964;28;20814;-45
2023/04/11 01:53:54;;;;;;;6.57;2.43;;;;;;;;;;5012865;28;20415;-45
2023/04/11 01:56:20;;;;;;;4.80;2.63;;;;;;;;;;5012834;28;20413;-45
2023/04/11 01:58:46;;;;;;;12.37;3.23;;;;;;;;;;5010909;28;20509;-45
2023/04/11 02:01:13;;;;;;;3.87;2.57;;;;;;;;;;5012695;28;20406;-45
2023/04/11 02:03:39;;;;;;;7.50;3.23;;;;;;;;;;5012684;28;20408;-45
2023/04/11 02:06:05;;;;;;;8.87;2.87;;;;;;;;;;5013352;28;20454;-45
2023/04/11 02:08:31;;;;;;;10.27;3.43;;;;;;;;;;5012207;28;20423;-45
2023/04/11 02:10:57;;;;;;;6.43;3.00;;;;;;;;;;5011137;28;20937;-45
2023/04/11 02:13:23;;;;;;;9.73;2.60;;;;;;;;;;5012429;28;20406;-45
2023/04/11 02:15:49;;;;;;;7.83;3.60;;;;;;;;;;5012430;28;20467;-45
2023/04/11 02:18:15;;;;;;;9.73;3.43;;;;;;;;;;5012082;28;20470;-45
2023/04/11 02:20:41;;;;;;;9.23;3.53;;;;;;;;;;5012355;28;20445;-45
2023/04/11 02:23:07;;;;;;;11.83;3.60;;;;;;;;;;5012518;28;20411;-45
2023/04/11 02:25:33;;;;;;;7.47;3.60;;;;;;;;;;5010868;28;20417;-45
2023/04/11 02:27:59;;;;;;;10.83;4.03;;;;;;;;;;5011845;28;20459;-45
2023/04/11 02:30:25;;;;;;;4.40;3.20;;;;;;;;;;5012210;28;20470;-45
2023/04/11 02:32:51;;;;;;;10.83;4.40;;;;;;;;;;5012105;28;21056;-46
2023/04/11 02:35:17;;;;;;;10.67;4.27;;;;;;;;;;5014643;28;20995;-45
2023/04/11 02:37:43;;;;;;;17.83;5.50;;;;;;;;;;5013405;28;20434;-44
2023/04/11 02:40:09;;;;;;;8.93;4.33;;;;;;;;;;5010862;28;20850;-45
2023/04/11 02:42:36;;;;;;;16.70;4.50;;;;;;;;;;5011998;28;20423;-45
2023/04/11 02:45:02;;;;;;;16.10;4.30;;;;;;;;;;5012024;28;20573;-44
2023/04/11 02:47:28;;;;;;;8.93;4.10;;;;;;;;;;5011727;28;20435;-46
2023/04/11 02:49:54;;;;;;;10.83;3.63;;;;;;;;;;5011973;28;20426;-45
2023/04/11 02:52:21;;;;;;;17.00;5.70;;;;;;;;;;5011112;28;20956;-45
2023/04/11 02:54:47;;;;;;;14.50;4.07;;;;;;;;;;5010577;28;20904;-45
2023/04/11 02:57:13;;;;;;;10.13;3.63;;;;;;;;;;5008673;28;20435;-45
2023/04/11 02:59:39;;;;;;;15.87;3.90;;;;;;;;;;5012067;28;20453;-45
2023/04/11 03:02:05;;;;;;;20.93;4.87;;;;;;;;;;5011906;28;20425;-45
2023/04/11 03:04:31;;;;;;;11.60;4.93;;;;;;;;;;5011883;28;20415;-45
2023/04/11 03:06:57;;;;;;;13.30;4.13;;;;;;;;;;5008083;28;20580;-45
2023/04/11 03:09:23;;;;;;;11.77;4.20;;;;;;;;;;5013062;28;20432;-45
2023/04/11 03:11:49;;;;;;;13.53;3.90;;;;;;;;;;5010738;28;20452;-44
2023/04/11 03:14:15;;;;;;;20.53;5.60;;;;;;;;;;5011895;28;20423;-45
2023/04/11 03:16:41;;;;;;;13.67;4.30;;;;;;;;;;5011446;28;20838;-45
2023/04/11 03:19:06;;;;;;;12.60;3.87;;;;;;;;;;5011515;28;20409;-45
2023/04/11 03:21:32;;;;;;;18.67;4.87;;;;;;;;;;5010489;28;20545;-44
2023/04/11 03:23:58;;;;;;;14.97;3.53;;;;;;;;;;5011634;28;20410;-45
2023/04/11 03:26:25;;;;;;;18.13;4.07;;;;;;;;;;5012105;28;20513;-44
2023/04/11 03:28:52;;;;;;;18.47;4.70;;;;;;;;;;5011178;28;20463;-45
2023/04/11 03:31:18;;;;;;;16.37;4.83;;;;;;;;;;5011600;28;20454;-44
2023/04/11 03:33:45;;;;;;;16.73;4.30;;;;;;;;;;5011511;28;20415;-44
2023/04/11 03:36:11;;;;;;;12.60;4.10;;;;;;;;;;5012534;28;20422;-44
2023/04/11 03:38:37;;;;;;;7.17;4.20;;;;;;;;;;5012735;28;20512;-44
2023/04/11 03:41:03;;;;;;;11.10;4.83;;;;;;;;;;5011488;28;20939;-45
2023/04/11 03:43:29;;;;;;;21.20;5.60;;;;;;;;;;5011381;28;20500;-45
2023/04/11 03:45:55;;;;;;;9.70;4.03;;;;;;;;;;5011377;28;20496;-45
2023/04/11 03:48:25;;;;;;;14.50;4.67;;;;;;;;;;5011181;28;20788;-45
2023/04/11 03:50:51;;;;;;;12.77;5.37;;;;;;;;;;5010740;28;20402;-45
2023/04/11 03:53:17;;;;;;;17.30;5.20;;;;;;;;;;5011321;28;20472;-44
2023/04/11 03:55:43;;;;;;;13.70;3.60;;;;;;;;;;5011286;28;20413;-45
2023/04/11 03:58:10;;;;;;;12.50;4.47;;;;;;;;;;5005155;28;20984;-45
2023/04/11 04:00:36;;;;;;;22.33;5.33;;;;;;;;;;5011291;28;20928;-44
2023/04/11 04:03:02;;;;;;;13.50;4.17;;;;;;;;;;5011437;28;20469;-44
2023/04/11 04:05:28;;;;;;;9.67;3.97;;;;;;;;;;5014944;28;20864;-44
2023/04/11 04:07:54;;;;;;;14.50;3.90;;;;;;;;;;5014314;28;20489;-45
2023/04/11 04:10:20;;;;;;;11.80;4.03;;;;;;;;;;5015599;28;20445;-45
2023/04/11 04:12:46;;;;;;;21.00;5.13;;;;;;;;;;5008943;28;20455;-44
2023/04/11 04:15:13;;;;;;;10.27;3.67;;;;;;;;;;5014759;28;20418;-45
2023/04/11 04:17:39;;;;;;;24.40;4.97;;;;;;;;;;5014304;28;20436;-45
2023/04/11 04:20:07;;;;;;;18.17;4.17;;;;;;;;;;5014680;28;20501;-45
2023/04/11 04:22:33;;;;;;;12.43;4.33;;;;;;;;;;5014453;28;20413;-44
2023/04/11 04:24:59;;;;;;;9.83;3.97;;;;;;;;;;5014571;28;20505;-46
2023/04/11 04:27:25;;;;;;;10.77;4.00;;;;;;;;;;5014390;28;20427;-44
2023/04/11 04:29:51;;;;;;;13.03;4.30;;;;;;;;;;5014518;28;20433;-45
2023/04/11 04:32:21;;;;;;;12.53;4.33;;;;;;;;;;5013530;28;20548;-44
2023/04/11 04:34:48;;;;;;;14.43;4.53;;;;;;;;;;5014308;28;20465;-44
2023/04/11 04:37:23;;;;;;;14.43;5.70;;;;;;;;;;5014400;28;20518;-48
2023/04/11 04:39:52;;;;;;;8.97;4.40;;;;;;;;;;5009576;28;20508;-45
2023/04/11 04:42:18;;;;;;;23.67;4.40;;;;;;;;;;5014191;28;20471;-45
2023/04/11 04:44:44;;;;;;;22.30;5.90;;;;;;;;;;5013382;28;20444;-45
2023/04/11 04:47:10;;;;;;;17.13;5.50;;;;;;;;;;5013862;28;20485;-45
2023/04/11 04:49:36;;;;;;;14.37;4.80;;;;;;;;;;5013927;28;20527;-45
2023/04/11 04:52:02;;;;;;;22.37;5.57;;;;;;;;;;5014046;28;20460;-45
2023/04/11 04:54:30;;;;;;;9.90;5.10;;;;;;;;;;5014153;28;20777;-45
2023/04/11 04:56:56;;;;;;;12.30;5.70;;;;;;;;;;5006283;28;20459;-45
2023/04/11 04:59:22;;;;;;;11.80;5.50;;;;;;;;;;5013166;28;20411;-46
2023/04/11 05:01:52;;;;;;;20.27;5.27;;;;;;;;;;5013803;28;20904;-45
2023/04/11 05:04:18;;;;;;;14.43;7.33;;;;;;;;;;5013877;28;20465;-45
2023/04/11 05:06:44;;;;;;;12.53;5.40;;;;;;;;;;5017506;28;20512;-45
2023/04/11 05:09:10;;;;;;;13.10;5.80;;;;;;;;;;5014549;28;20437;-45
2023/04/11 05:11:36;;;;;;;23.10;6.07;;;;;;;;;;5012021;28;20460;-44
2023/04/11 05:14:02;;;;;;;17.60;5.90;;;;;;;;;;5013078;28;20452;-44
2023/04/11 05:16:28;;;;;;;15.73;5.00;;;;;;;;;;5012549;28;20406;-44
2023/04/11 05:18:54;;;;;;;29.27;5.87;;;;;;;;;;5010964;28;20433;-44
2023/04/11 05:21:21;;;;;;;14.33;4.97;;;;;;;;;;5009405;28;20888;-44
2023/04/11 05:23:47;;;;;;;15.03;5.07;;;;;;;;;;5013425;28;20406;-44
2023/04/11 05:26:13;;;;;;;16.97;5.57;;;;;;;;;;5013303;28;20422;-44
2023/04/11 05:28:40;;;;;;;15.93;5.80;;;;;;;;;;5012875;28;20431;-44
2023/04/11 05:31:07;;;;;;;12.83;5.60;;;;;;;;;;5013233;28;20411;-46
2023/04/11 05:33:33;;;;;;;13.73;5.03;;;;;;;;;;5013514;28;20417;-44
2023/04/11 05:36:00;;;;;;;15.90;5.10;;;;;;;;;;5013216;28;20470;-45
2023/04/11 05:38:26;;;;;;;14.10;4.97;;;;;;;;;;5009565;28;20455;-44
2023/04/11 05:40:52;;;;;;;11.97;4.80;;;;;;;;;;5014088;28;20432;-44
2023/04/11 05:43:18;;;;;;;19.43;5.77;;;;;;;;;;5012938;28;20911;-45
2023/04/11 05:45:46;;;;;;;16.40;5.20;;;;;;;;;;5012823;28;20401;-44
2023/04/11 05:48:12;;;;;;;10.80;4.53;;;;;;;;;;5012657;28;20945;-44
2023/04/11 05:50:38;;;;;;;8.83;4.33;;;;;;;;;;5013182;28;20438;-45
2023/04/11 05:53:04;;;;;;;23.03;5.57;;;;;;;;;;5012863;28;20499;-44
2023/04/11 05:55:30;;;;;;;13.33;5.67;;;;;;;;;;5012810;28;20849;-44
2023/04/11 05:57:56;;;;;;;13.70;5.07;;;;;;;;;;5004381;28;20437;-45
2023/04/11 06:00:23;;;;;;;6.60;4.00;;;;;;;;;;5011060;28;20414;-44
2023/04/11 06:02:50;;;;;;;12.17;5.07;;;;;;;;;;5008558;28;20423;-44
2023/04/11 06:05:16;;;;;;;8.43;4.60;;;;;;;;;;5012012;28;20433;-44
2023/04/11 06:07:43;;;;;;;14.73;4.60;;;;;;;;;;5014262;28;20978;-46
2023/04/11 06:10:09;;;;;;;8.20;4.60;;;;;;;;;;5013424;28;20425;-44
2023/04/11 06:12:36;;;;;;;8.70;4.23;;;;;;;;;;5017365;28;20456;-44
2023/04/11 06:15:02;;;;;;;7.10;4.10;;;;;;;;;;5010205;28;20807;-44
2023/04/11 06:17:28;;;;;;;16.43;5.90;;;;;;;;;;5011565;28;20950;-44
2023/04/11 06:19:54;;;;;;;10.90;3.50;;;;;;;;;;5011696;28;20811;-43
2023/04/11 06:22:20;;;;;;;11.33;4.33;;;;;;;;;;5011875;28;20424;-44
2023/04/11 06:24:46;;;;;;;9.50;4.43;;;;;;;;;;5011695;28;20752;-44
2023/04/11 06:27:13;;;;;;;15.43;4.70;;;;;;;;;;5011347;28;20422;-45
2023/04/11 06:29:39;;;;;;;9.80;4.80;;;;;;;;;;5010345;28;20442;-44
2023/04/11 06:32:06;;;;;;;16.30;6.17;;;;;;;;;;5011582;28;20957;-45
2023/04/11 06:34:31;;;;;;;6.57;4.77;;;;;;;;;;5011629;28;20502;-44
2023/04/11 06:36:58;;;;;;;8.10;4.60;;;;;;;;;;5011019;28;20661;-44
2023/04/11 06:39:24;;;;;;;8.50;4.73;;;;;;;;;;5017144;28;20423;-44
2023/04/11 06:41:50;;;;;;;9.93;4.67;;;;;;;;;;5010384;28;20476;-44
2023/04/11 06:44:16;;;;;;;11.37;4.47;;;;;;;;;;5011949;28;20501;-44
2023/04/11 06:46:42;;;;;;;15.63;5.53;;;;;;;;;;5011826;28;20799;-44
2023/04/11 06:49:09;;;;;;;14.00;4.80;;;;;;;;;;5011735;28;20421;-44
2023/04/11 06:51:35;;;;;;;10.27;4.30;;;;;;;;;;5011588;28;20988;-44
2023/04/11 06:54:02;;;;;;;11.87;4.50;;;;;;;;;;5011833;28;20497;-44
2023/04/11 06:56:28;;;;;;;16.67;5.90;;;;;;;;;;5011604;28;20399;-44
2023/04/11 06:58:54;;;;;;;10.93;4.10;;;;;;;;;;5011377;28;20435;-44
2023/04/11 07:01:24;;;;;;;12.00;5.37;;;;;;;;;;5011655;28;20493;-44
2023/04/11 07:03:51;;;;;;;9.93;4.00;;;;;;;;;;5011644;28;20451;-44
2023/04/11 07:06:17;;;;;;;8.77;4.23;;;;;;;;;;5011840;28;20408;-44
2023/04/11 07:08:43;;;;;;;11.30;3.90;;;;;;;;;;5012195;28;20542;-44
2023/04/11 07:11:10;;;;;;;7.10;4.00;;;;;;;;;;5015019;28;20510;-45
2023/04/11 07:13:36;;;;;;;9.47;4.13;;;;;;;;;;5009262;28;20412;-45
2023/04/11 07:16:02;;;;;;;13.97;4.87;;;;;;;;;;5011762;28;20419;-45
2023/04/11 07:18:28;;;;;;;8.53;4.37;;;;;;;;;;5011323;28;20427;-45
2023/04/11 07:20:54;;;;;;;7.47;3.40;;;;;;;;;;5011578;28;20403;-45
2023/04/11 07:23:20;;;;;;;9.93;4.43;;;;;;;;;;5011521;28;20410;-45
2023/04/11 07:25:47;;;;;;;8.73;3.50;;;;;;;;;;5011344;28;20443;-44
2023/04/11 07:28:14;;;;;;;6.93;3.10;;;;;;;;;;5011339;28;20927;-44
2023/04/11 07:30:40;;;;;;;8.80;3.60;;;;;;;;;;5011405;28;20403;-44
2023/04/11 07:33:06;;;;;;;8.07;3.53;;;;;;;;;;5011317;28;20470;-44
2023/04/11 07:35:33;;;;;;;5.07;2.30;;;;;;;;;;5011446;28;20401;-44
2023/04/11 07:38:00;;;;;;;8.13;3.00;;;;;;;;;;5011379;28;20450;-44
2023/04/11 07:40:26;;;;;;;4.60;3.27;;;;;;;;;;5018117;28;20443;-44
2023/04/11 07:42:52;;;;;;;6.33;2.87;;;;;;;;;;5022140;28;20434;-44
2023/04/11 07:45:18;;;;;;;8.57;2.37;;;;;;;;;;5015147;28;20789;-45
2023/04/11 07:47:44;;;;;;;2.80;2.40;;;;;;;;;;5014647;28;20440;-45
2023/04/11 07:50:10;;;;;;;4.87;2.80;;;;;;;;;;5014951;28;20412;-45
2023/04/11 07:52:36;;;;;;;11.60;2.60;;;;;;;;;;5014844;28;20460;-44
2023/04/11 07:55:03;;;;;;;9.67;3.50;;;;;;;;;;5014744;28;20786;-45
2023/04/11 07:57:29;;;;;;;7.73;2.80;;;;;;;;;;5011510;28;20438;-44
2023/04/11 07:59:56;;;;;;;11.50;2.80;;;;;;;;;;5014803;28;20408;-44
2023/04/11 08:02:22;;;;;;;6.33;3.13;;;;;;;;;;5014836;28;20406;-44
2023/04/11 08:04:48;;;;;;;6.20;2.87;;;;;;;;;;5014732;28;20418;-44
2023/04/11 08:07:14;;;;;;;3.27;2.67;;;;;;;;;;5014309;28;20450;-44
2023/04/11 08:09:41;;;;;;;8.77;3.40;;;;;;;;;;5013898;28;20935;-45
2023/04/11 08:12:07;;;;;;;10.43;3.10;;;;;;;;;;5022077;28;20446;-45
2023/04/11 08:14:33;;;;;;;7.03;3.30;;;;;;;;;;5014584;28;20391;-44
2023/04/11 08:16:59;;;;;;;8.40;3.20;;;;;;;;;;5014295;28;20436;-44
2023/04/11 08:19:26;;;;;;;8.27;3.70;;;;;;;;;;5017371;28;20795;-45
2023/04/11 08:21:52;;;;;;;5.77;2.90;;;;;;;;;;5014291;28;20761;-44
2023/04/11 08:24:18;;;;;;;10.93;2.40;;;;;;;;;;5012837;28;20973;-45
2023/04/11 08:26:44;;;;;;;5.50;3.40;;;;;;;;;;5014397;28;20424;-44
2023/04/11 08:29:11;;;;;;;9.67;2.87;;;;;;;;;;5014289;28;20395;-45
2023/04/11 08:31:41;;;;;;;7.97;3.30;;;;;;;;;;5014155;28;20429;-45
2023/04/11 08:34:07;;;;;;;6.30;2.73;;;;;;;;;;5014319;28;20908;-45
2023/04/11 08:36:33;;;;;;;4.20;2.87;;;;;;;;;;5012615;28;20378;-45
2023/04/11 08:38:59;;;;;;;6.67;3.60;;;;;;;;;;5013893;28;20960;-45
2023/04/11 08:41:29;;;;;;;5.17;3.00;;;;;;;;;;5018136;28;20892;-45
2023/04/11 08:43:55;;;;;;;5.90;3.27;;;;;;;;;;5014185;28;20418;-45
2023/04/11 08:46:21;;;;;;;7.40;3.30;;;;;;;;;;5014079;28;20830;-45
2023/04/11 08:48:47;;;;;;;4.67;3.30;;;;;;;;;;5014054;28;20434;-44
2023/04/11 08:51:13;;;;;;;5.63;2.60;;;;;;;;;;5012629;28;20390;-45
2023/04/11 08:53:40;;;;;;;12.60;3.30;;;;;;;;;;5013922;28;20414;-45
2023/04/11 08:56:06;;;;;;;4.73;3.07;;;;;;;;;;5012753;28;20401;-45
2023/04/11 08:58:32;;;;;;;9.63;3.90;;;;;;;;;;5012334;28;20443;-45
2023/04/11 09:01:18;;;;;;;5.63;2.80;;;;;;;;;;5009122;28;20393;-44
2023/04/11 09:03:51;;;;;;;5.87;2.73;;;;;;;;;;5013463;28;20850;-45
2023/04/11 09:06:17;;;;;;;4.97;2.30;;;;;;;;;;5013448;28;20509;-44
2023/04/11 09:08:43;;;;;;;6.13;2.83;;;;;;;;;;5013431;28;20495;-44
2023/04/11 09:11:09;;;;;;;7.53;3.07;;;;;;;;;;5012925;28;20378;-44
2023/04/11 09:13:35;;;;;;;8.23;2.93;;;;;;;;;;5013645;28;20757;-45
2023/04/11 09:16:13;;;;;;;7.73;3.57;;;;;;;;;;5013540;28;20413;-45
2023/04/11 09:18:43;;;;;;;6.10;2.90;;;;;;;;;;5016942;28;20469;-44
2023/04/11 09:21:10;;;;;;;3.83;3.10;;;;;;;;;;5020783;28;20405;-45
2023/04/11 09:23:37;;;;;;;3.63;2.80;;;;;;;;;;5006450;28;20420;-45
2023/04/11 09:26:07;;;;;;;5.90;2.90;;;;;;;;;;5012741;28;20438;-45
2023/04/11 09:28:43;;;;;;;5.40;2.67;;;;;;;;;;5012838;28;20957;-45
2023/04/11 09:31:11;;;;;;;7.53;2.90;;;;;;;;;;5016361;28;20476;-46
2023/04/11 09:33:37;;;;;;;2.97;2.53;;;;;;;;;;5013699;28;20423;-44
2023/04/11 09:36:17;;;;;;;4.47;2.77;;;;;;;;;;5014225;28;20812;-44
2023/04/11 09:38:43;;;;;;;6.60;2.30;;;;;;;;;;5012978;28;20509;-45
2023/04/11 09:41:09;;;;;;;8.33;2.77;;;;;;;;;;5013714;28;20407;-45
2023/04/11 09:43:49;;;;;;;5.10;2.70;;;;;;;;;;5014993;28;20415;-45
2023/04/11 09:46:17;;;;;;;2.73;2.43;;;;;;;;;;5012722;28;20930;-44
2023/04/11 09:48:43;;;;;;;9.63;2.40;;;;;;;;;;5013582;28;20488;-44
2023/04/11 09:51:09;;;;;;;2.27;1.90;;;;;;;;;;5013676;28;20382;-45
2023/04/11 09:53:36;;;;;;;17.90;3.03;;;;;;;;;;5012754;28;20386;-44
2023/04/11 09:56:03;;;;;;;10.03;2.17;;;;;;;;;;5011706;28;20918;-44
2023/04/11 09:58:30;;;;;;;7.83;2.73;;;;;;;;;;5013129;28;20498;-44
2023/04/11 10:00:58;;;;;;;3.90;2.43;;;;;;;;;;5012748;28;20469;-44
2023/04/11 10:03:25;;;;;;;5.30;2.47;;;;;;;;;;5013217;28;20506;-44
2023/04/11 10:05:52;;;;;;;8.57;2.20;;;;;;;;;;5013737;28;20602;-45
2023/04/11 10:08:24;;;;;;;5.40;2.30;;;;;;;;;;5010911;28;20780;-44
2023/04/11 10:10:51;;;;;;;4.03;2.17;;;;;;;;;;5010135;28;20393;-44
2023/04/11 10:13:36;;;;;;;7.80;2.43;;;;;;;;;;5012613;28;20440;-44
2023/04/11 10:16:09;;;;;;;5.23;2.10;;;;;;;;;;5008726;28;20448;-46
2023/04/11 10:18:36;;;;;;;4.80;2.40;;;;;;;;;;5013003;28;20466;-45
2023/04/11 10:21:03;;;;;;;4.57;2.67;;;;;;;;;;5011826;28;20413;-45
2023/04/11 10:23:29;;;;;;;11.40;4.90;;;;;;;;;;5009595;28;20421;-45
2023/04/11 10:25:57;;;;;;;6.60;3.83;;;;;;;;;;5011925;28;20785;-44
2023/04/11 10:28:33;;;;;;;6.50;2.87;;;;;;;;;;5008886;28;20430;-44
2023/04/11 10:31:00;;;;;;;3.23;2.87;;;;;;;;;;5010152;28;20831;-44
2023/04/11 10:33:26;;;;;;;11.23;3.10;;;;;;;;;;5012456;28;20423;-44
2023/04/11 10:36:02;;;;;;;7.77;2.80;;;;;;;;;;5011366;28;20436;-45
2023/04/11 10:38:40;;;;;;;4.10;2.20;;;;;;;;;;5010083;28;20466;-45
2023/04/11 10:41:27;;;;;;;7.60;3.00;;;;;;;;;;5011732;28;20502;-45
2023/04/11 10:44:12;;;;;;;7.87;2.40;;;;;;;;;;5009788;28;20458;-44
2023/04/11 10:46:43;;;;;;;3.10;2.30;;;;;;;;;;5000601;28;20423;-46
2023/04/11 10:49:09;;;;;;;7.23;3.17;;;;;;;;;;5016208;28;20481;-45
2023/04/11 10:51:35;;;;;;;6.07;2.83;;;;;;;;;;5011915;28;20960;-44
2023/04/11 10:54:01;;;;;;;4.70;2.47;;;;;;;;;;5010909;28;20411;-45
2023/04/11 10:56:39;;;;;;;5.73;3.20;;;;;;;;;;5007395;28;20456;-45
2023/04/11 10:59:05;;;;;;;6.30;4.00;;;;;;;;;;5008113;28;20422;-45
2023/04/11 11:01:32;;;;;;;5.63;2.97;;;;;;;;;;5005346;28;20411;-45
2023/04/11 11:03:58;;;;;;;5.53;2.60;;;;;;;;;;5009152;28;20423;-45
2023/04/11 11:06:25;;;;;;;7.20;2.40;;;;;;;;;;5008652;28;20427;-45
2023/04/11 11:08:51;;;;;;;4.50;2.50;;;;;;;;;;5007631;28;20456;-44
2023/04/11 11:11:18;;;;;;;4.40;2.70;;;;;;;;;;5011914;28;20737;-45
2023/04/11 11:13:57;;;;;;;12.60;3.00;;;;;;;;;;5012428;28;20910;-46
2023/04/11 11:16:24;;;;;;;4.90;2.37;;;;;;;;;;5012475;28;20424;-45
2023/04/11 11:18:51;;;;;;;5.37;2.57;;;;;;;;;;5015396;28;20520;-45
2023/04/11 11:21:23;;;;;;;4.57;2.53;;;;;;;;;;5015801;28;20414;-45
2023/04/11 11:24:02;;;;;;;5.40;2.23;;;;;;;;;;5011319;28;20484;-45
2023/04/11 11:26:54;;;;;;;4.57;3.33;;;;;;;;;;5017816;28;20424;-45
2023/04/11 11:29:31;;;;;;;8.20;3.00;;;;;;;;;;5005805;28;20423;-45
2023/04/11 11:31:57;;;;;;;5.73;2.37;;;;;;;;;;5014879;28;20957;-45
2023/04/11 11:34:30;;;;;;;3.63;2.13;;;;;;;;;;5010960;28;20435;-45
2023/04/11 11:36:56;;;;;;;7.53;2.60;;;;;;;;;;5009147;28;20923;-44
2023/04/11 11:39:22;;;;;;;6.83;4.30;;;;;;;;;;5018266;28;20450;-45
2023/04/11 11:41:49;;;;;;;2.80;2.10;;;;;;;;;;5012158;28;20425;-46
2023/04/11 11:44:25;;;;;;;2.70;2.00;;;;;;;;;;5013144;28;20488;-45
2023/04/11 11:47:00;;;;;;;5.30;2.10;;;;;;;;;;5014923;28;20938;-45
2023/04/11 11:49:26;;;;;;;10.07;6.10;;;;;;;;;;5013546;28;20457;-45
2023/04/11 11:51:52;;;;;;;5.63;2.80;;;;;;;;;;5015559;28;20522;-45
2023/04/11 11:54:18;;;;;;;3.20;2.40;;;;;;;;;;5011034;28;20464;-47
2023/04/11 11:56:50;;;;;;;7.00;2.53;;;;;;;;;;5006642;28;20424;-45
2023/04/11 11:59:25;;;;;;;9.00;2.40;;;;;;;;;;5015226;28;20403;-45
2023/04/11 12:01:51;;;;;;;8.63;2.40;;;;;;;;;;5015196;28;20410;-44
2023/04/11 12:04:18;;;;;;;4.93;2.30;;;;;;;;;;5015387;28;20403;-45
2023/04/11 12:06:44;;;;;;;5.90;2.23;;;;;;;;;;5014659;28;20410;-46
2023/04/11 12:09:11;;;;;;;6.47;2.87;;;;;;;;;;5017923;28;20434;-46
2023/04/11 12:11:40;;;;;;;6.27;3.47;;;;;;;;;;5008038;28;20528;-46
2023/04/11 12:14:07;;;;;;;3.23;2.13;;;;;;;;;;5014675;28;20411;-46
2023/04/11 12:16:33;;;;;;;7.13;2.37;;;;;;;;;;5014585;28;20418;-46
2023/04/11 12:19:00;;;;;;;5.53;2.17;;;;;;;;;;5014234;28;20462;-46
2023/04/11 12:21:26;;;;;;;3.53;2.20;;;;;;;;;;5014334;28;20419;-46
2023/04/11 12:23:52;;;;;;;5.53;2.50;;;;;;;;;;5013976;28;20938;-46
2023/04/11 12:26:19;;;;;;;4.90;2.13;;;;;;;;;;5014620;28;20498;-46
2023/04/11 12:28:45;;;;;;;4.83;2.57;;;;;;;;;;5014041;28;20878;-46
2023/04/11 12:31:12;;;;;;;5.27;2.40;;;;;;;;;;5012560;28;20423;-45
2023/04/11 12:33:38;;;;;;;4.23;2.53;;;;;;;;;;5014296;28;20478;-45
2023/04/11 12:36:07;;;;;;;4.93;3.60;;;;;;;;;;5014130;28;20395;-46
2023/04/11 12:38:33;;;;;;;6.07;3.13;;;;;;;;;;5017742;28;20937;-45
2023/04/11 12:41:00;;;;;;;5.20;2.23;;;;;;;;;;5018160;28;20433;-46
2023/04/11 12:43:26;;;;;;;7.80;2.50;;;;;;;;;;5010139;28;20407;-46
2023/04/11 12:45:52;;;;;;;2.77;2.37;;;;;;;;;;5014187;28;20457;-46
2023/04/11 12:48:18;;;;;;;6.13;2.10;;;;;;;;;;5013800;28;20440;-46
2023/04/11 12:50:44;;;;;;;4.53;2.13;;;;;;;;;;5014240;28;20408;-46
2023/04/11 12:53:10;;;;;;;2.63;2.00;;;;;;;;;;5014132;28;20604;-46
2023/04/11 12:55:36;;;;;;;3.20;2.20;;;;;;;;;;5013854;28;20874;-45
2023/04/11 12:58:02;;;;;;;4.07;2.60;;;;;;;;;;5012102;28;20427;-45
2023/04/11 13:00:28;;;;;;;4.77;2.20;;;;;;;;;;5012359;28;20420;-45
2023/04/11 13:02:56;;;;;;;5.67;2.40;;;;;;;;;;5013839;28;20405;-46
2023/04/11 13:05:22;;;;;;;2.17;1.93;;;;;;;;;;5009236;28;20499;-45
2023/04/11 13:07:48;;;;;;;1.90;1.80;;;;;;;;;;5013514;28;20518;-45
2023/04/11 13:10:15;;;;;;;3.30;2.13;;;;;;;;;;5014731;28;20430;-45
2023/04/11 13:12:43;;;;;;;3.70;2.67;;;;;;;;;;5012104;28;20457;-45
2023/04/11 13:15:10;;;;;;;3.60;1.60;;;;;;;;;;5013573;28;20419;-45
2023/04/11 13:17:36;;;;;;;3.07;2.60;;;;;;;;;;5008560;28;20437;-46
2023/04/11 13:20:06;;;;;;;4.70;1.73;;;;;;;;;;5010983;28;20401;-46
2023/04/11 13:22:32;;;;;;;5.23;1.50;;;;;;;;;;5010257;28;20418;-46
2023/04/11 13:24:58;;;;;;;4.67;1.80;;;;;;;;;;5005790;28;20407;-46
2023/04/11 13:27:24;;;;;;;2.43;2.20;;;;;;;;;;5011653;28;20510;-46
2023/04/11 13:29:50;;;;;;;4.80;1.50;;;;;;;;;;5013222;28;20415;-46
2023/04/11 13:32:16;;;;;;;4.10;1.83;;;;;;;;;;5013008;28;20833;-46
2023/04/11 13:34:42;;;;;;;4.20;1.57;;;;;;;;;;5013123;28;20490;-46
2023/04/11 13:37:08;;;;;;;4.37;1.57;;;;;;;;;;5012086;28;20955;-46
2023/04/11 13:39:34;;;;;;;5.13;1.80;;;;;;;;;;5013431;28;20783;-45
2023/04/11 13:42:00;;;;;;;6.73;2.27;;;;;;;;;;5013324;28;20406;-45
2023/04/11 13:44:26;;;;;;;8.73;2.00;;;;;;;;;;5013049;28;20768;-46
2023/04/11 13:46:52;;;;;;;6.13;1.80;;;;;;;;;;5012678;28;20562;-46
2023/04/11 13:49:18;;;;;;;2.17;1.40;;;;;;;;;;5012963;28;20501;-46
2023/04/11 13:51:44;;;;;;;2.93;1.40;;;;;;;;;;5012815;28;20463;-45
2023/04/11 13:54:10;;;;;;;3.63;1.77;;;;;;;;;;5011543;28;20972;-46
2023/04/11 13:56:36;;;;;;;4.30;1.63;;;;;;;;;;5009854;28;20452;-46
2023/04/11 13:59:02;;;;;;;5.40;1.80;;;;;;;;;;5012608;28;20796;-46
2023/04/11 14:01:28;;;;;;;4.67;2.37;;;;;;;;;;5013965;28;20493;-45
2023/04/11 14:03:54;;;;;;;4.03;1.43;;;;;;;;;;5012888;28;20413;-46
2023/04/11 14:06:21;;;;;;;2.43;1.27;;;;;;;;;;5012925;28;20800;-45
2023/04/11 14:08:47;;;;;;;4.43;1.80;;;;;;;;;;5015046;28;20454;-46
2023/04/11 14:11:13;;;;;;;1.97;1.37;;;;;;;;;;5012556;28;20921;-45
2023/04/11 14:13:39;;;;;;;3.00;1.40;;;;;;;;;;5011175;28;20411;-45
2023/04/11 14:16:05;;;;;;;2.53;1.70;;;;;;;;;;5012332;28;20430;-45
2023/04/11 14:18:31;;;;;;;5.33;1.70;;;;;;;;;;5012102;28;20437;-45
2023/04/11 14:20:59;;;;;;;3.13;1.40;;;;;;;;;;5012461;28;20501;-45
2023/04/11 14:23:26;;;;;;;3.27;1.77;;;;;;;;;;5011205;28;20427;-46
2023/04/11 14:25:52;;;;;;;3.03;1.40;;;;;;;;;;5012241;28;20763;-45
2023/04/11 14:28:19;;;;;;;4.70;1.63;;;;;;;;;;5011794;28;20530;-45
2023/04/11 14:30:45;;;;;;;4.83;1.80;;;;;;;;;;5011990;28;20461;-45
2023/04/11 14:33:11;;;;;;;2.57;1.40;;;;;;;;;;5011803;28;20455;-45
2023/04/11 14:35:37;;;;;;;4.33;1.93;;;;;;;;;;5011018;28;20409;-45
2023/04/11 14:38:03;;;;;;;5.97;1.83;;;;;;;;;;5011782;28;20409;-45